Russell Springs, KY (42642)

12:05 AM CDT on July 06, 2015 (GMT -0500)
LazyDaze | | Change Station
CLOSE
Current Station
Personal Weather Station
Location: Jamestown, KY
Elevation: 978 ft
Nearby Weather Stations

Elev 978 ft 36.94 °N, 85.20 °W | Updated 18 seconds ago

Fog
Fog
68.5 °F
Feels Like 68.5 °F
N
0.0
Wind Variable Wind from SSE
Gusts 0.0 mph

Today
High -- | Low -- °F
--% Chance of Precip.
Yesterday
High -- | Low -- °F
Precip. -- in
5:26 AM 8:03 PM
Waning Gibbous, 79% visible
Pressure 30.10 in
Visibility 0.5 miles
Clouds Overcast 200 ft
Dew Point 68 °F
Humidity 99%
Rainfall 0.00 in
Snow Depth Not available.
UV 0.0 out of 12
Pollen 1.00 out of 12
Air Quality Not available.
Flu Activity Not available.
METAR KSME 060455Z AUTO 00000KT 1/2SM FG OVC002 19/19 A3010 RMK AO2

More Conditions Fewer Conditions

Pressure 30.10 in
Visibility 0.5 miles
Clouds Overcast 200 ft
Dew Point 68 °F
Humidity 99%
Rainfall 0.00 in
Snow Depth Not available.
UV 0.0 out of 12
Pollen 1.00 out of 12
Air Quality Not available.
Flu Activity Not available.
METAR KSME 060455Z AUTO 00000KT 1/2SM FG OVC002 19/19 A3010 RMK AO2

More Conditions Fewer Conditions

10-Day Weather Forecast

×

Almanac

Astronomy

Jul. 06, 2015 Rise Set
Actual Time
Civil Twilight
Nautical Twilight
Astronomical Twilight
Moon
Length of Visible Light
Length of Day
Tomorrow will be .
, % of the Moon is Illuminated

Today's Extremes

State Highs State Lows

Community

WunderPhotos

Upload Photos

1,835,487 photos uploaded!

WunderBlogs® & News

Nearby

Air Quality

  Air Quality AQ Index Pollutant
Not available.

Snow Depth

Station Depth Elevation

Earthquake Activity

City Distance Mag. Time & Date
Minimum magnitude displayed is 2.5.

Coastal Water Temperatures

Place Temperature

Stations

Nearby Weather Stations

Station Location Temp. Windchill Dew Point Humidity Wind Precip. Elev Updated Type